createdAt,value
2023-05-10T00:01:42.661Z,15.90
2023-05-10T00:06:44.427Z,15.80
2023-05-10T00:11:46.132Z,16.00
2023-05-10T00:16:47.902Z,15.90
2023-05-10T00:21:50.101Z,15.90
2023-05-10T00:26:51.843Z,15.90
2023-05-10T00:31:53.640Z,16.00
2023-05-10T00:36:55.486Z,15.80
2023-05-10T00:41:57.292Z,15.90
2023-05-10T00:47:00.110Z,15.90
2023-05-10T00:52:02.968Z,16.00
2023-05-10T00:57:05.141Z,15.90
2023-05-10T01:02:07.649Z,16.00
2023-05-10T01:07:09.476Z,15.90
2023-05-10T01:12:13.018Z,15.90
2023-05-10T01:17:15.522Z,15.80
2023-05-10T01:22:31.506Z,15.80
2023-05-10T01:28:00.632Z,15.80
2023-05-10T01:33:22.139Z,15.80
2023-05-10T01:38:32.867Z,15.80
2023-05-10T01:43:46.606Z,15.80
2023-05-10T01:48:56.654Z,15.70
2023-05-10T01:54:03.111Z,15.60
2023-05-10T01:59:10.333Z,15.60
2023-05-10T02:04:16.633Z,15.40
2023-05-10T02:09:21.172Z,15.30
2023-05-10T02:14:25.340Z,15.40
2023-05-10T02:19:29.761Z,15.40
2023-05-10T02:24:34.503Z,15.40
2023-05-10T02:29:37.498Z,15.40
2023-05-10T02:34:40.479Z,15.30
2023-05-10T02:39:45.029Z,15.20
2023-05-10T02:44:49.857Z,15.20
2023-05-10T02:49:51.699Z,15.30
2023-05-10T02:54:56.808Z,15.40
2023-05-10T02:59:59.335Z,15.40
2023-05-10T03:05:01.192Z,15.50
2023-05-10T03:10:04.419Z,15.40
2023-05-10T03:15:21.269Z,15.10
2023-05-10T03:20:32.207Z,15.10
2023-05-10T03:25:35.309Z,14.90
2023-05-10T03:30:40.300Z,14.90
2023-05-10T03:35:43.215Z,14.90
2023-05-10T03:40:44.993Z,14.80
2023-05-10T03:45:46.845Z,14.60
2023-05-10T03:50:50.233Z,14.70
2023-05-10T03:55:52.193Z,14.70
2023-05-10T04:00:54.070Z,14.60
2023-05-10T04:06:02.889Z,14.60
2023-05-10T04:11:11.762Z,14.70
2023-05-10T04:16:13.731Z,14.60
2023-05-10T04:21:15.868Z,14.60
2023-05-10T04:26:17.696Z,14.30
2023-05-10T04:31:19.568Z,14.50
2023-05-10T04:36:21.349Z,14.50
2023-05-10T04:41:23.096Z,14.60
2023-05-10T04:46:24.850Z,14.50
2023-05-10T04:51:26.568Z,14.60
2023-05-10T04:56:28.349Z,14.60
2023-05-10T05:01:30.301Z,14.60
2023-05-10T05:06:32.053Z,14.50
2023-05-10T05:11:33.774Z,14.50
2023-05-10T05:16:35.759Z,14.50
2023-05-10T05:21:37.628Z,14.50
2023-05-10T05:26:39.721Z,14.70
2023-05-10T05:31:41.509Z,14.90
2023-05-10T05:36:43.298Z,14.90
2023-05-10T05:41:45.045Z,15.10
2023-05-10T05:46:46.740Z,15.40
2023-05-10T05:51:50.507Z,15.80
2023-05-10T05:56:54.483Z,15.90
2023-05-10T06:01:56.240Z,16.30
2023-05-10T06:06:58.294Z,16.50
2023-05-10T06:12:00.081Z,16.80
2023-05-10T06:17:02.012Z,16.90
2023-05-10T06:22:03.950Z,17.10
2023-05-10T06:27:06.816Z,17.10
2023-05-10T06:32:08.598Z,16.90
2023-05-10T06:37:10.518Z,16.70
2023-05-10T06:42:12.315Z,16.60
2023-05-10T06:47:14.049Z,16.70
2023-05-10T06:52:15.820Z,16.70
2023-05-10T06:57:30.376Z,16.50
2023-05-10T07:02:33.422Z,16.50
2023-05-10T07:07:35.191Z,16.50
2023-05-10T07:12:36.971Z,16.70
2023-05-10T07:17:38.854Z,16.90
2023-05-10T07:22:40.839Z,17.20
2023-05-10T07:27:42.562Z,17.10
2023-05-10T07:32:44.349Z,17.20
2023-05-10T07:37:46.175Z,17.10
2023-05-10T07:42:47.867Z,17.00
2023-05-10T07:47:49.642Z,16.70
2023-05-10T07:52:51.553Z,16.70
2023-05-10T07:57:53.572Z,16.50
2023-05-10T08:02:55.383Z,16.50
2023-05-10T08:07:57.147Z,16.50
2023-05-10T08:12:59.535Z,16.90
2023-05-10T08:18:01.286Z,17.60
2023-05-10T08:23:03.098Z,17.80
2023-05-10T08:28:05.095Z,17.60
2023-05-10T08:33:06.899Z,17.30
2023-05-10T08:38:08.878Z,16.90
2023-05-10T08:43:12.934Z,16.90
2023-05-10T08:48:14.821Z,17.10
2023-05-10T08:53:18.091Z,17.80
2023-05-10T08:58:20.613Z,18.30
2023-05-10T09:03:22.434Z,18.70
2023-05-10T09:08:28.307Z,18.60
2023-05-10T09:13:30.941Z,18.50
2023-05-10T09:18:32.659Z,18.40
2023-05-10T09:23:34.493Z,19.40
2023-05-10T09:28:58.206Z,20.50
2023-05-10T09:33:59.929Z,20.60
2023-05-10T09:39:01.621Z,20.20
2023-05-10T09:44:03.571Z,19.90
2023-05-10T09:49:06.760Z,19.70
2023-05-10T09:54:17.039Z,19.70
2023-05-10T09:59:19.583Z,19.80
2023-05-10T10:04:22.414Z,19.50
2023-05-10T10:09:24.682Z,19.30
2023-05-10T10:14:26.833Z,19.40
2023-05-10T10:19:29.393Z,20.10
2023-05-10T10:24:31.137Z,20.10
2023-05-10T10:30:01.837Z,20.20
2023-05-10T10:35:05.025Z,21.00
2023-05-10T10:40:24.698Z,19.90
2023-05-10T10:45:27.394Z,19.90
2023-05-10T10:50:29.738Z,19.50
2023-05-10T10:55:31.696Z,20.10
2023-05-10T11:00:38.286Z,20.20
2023-05-10T11:05:52.252Z,20.40
2023-05-10T11:11:07.761Z,22.00
2023-05-10T11:16:17.035Z,21.20
2023-05-10T11:21:19.389Z,20.70
2023-05-10T11:26:24.220Z,20.20
2023-05-10T11:31:27.928Z,20.20
2023-05-10T11:36:30.603Z,20.80
2023-05-10T11:41:32.559Z,21.30
2023-05-10T11:46:34.374Z,22.40
2023-05-10T11:51:37.349Z,22.30
2023-05-10T11:56:42.191Z,21.30
2023-05-10T12:01:44.217Z,20.90
2023-05-10T12:06:47.592Z,21.30
2023-05-10T12:11:49.336Z,21.70
2023-05-10T12:16:51.785Z,21.90
2023-05-10T12:21:53.667Z,21.90
2023-05-10T12:26:55.379Z,22.80
2023-05-10T12:31:59.362Z,23.00
2023-05-10T12:37:01.687Z,23.80
2023-05-10T12:42:03.577Z,23.30
2023-05-10T12:47:05.422Z,22.90
2023-05-10T12:52:07.328Z,23.10
2023-05-10T12:57:10.356Z,23.40
2023-05-10T13:02:12.301Z,22.40
2023-05-10T13:07:14.462Z,22.00
2023-05-10T13:12:16.363Z,21.50
2023-05-10T13:17:18.294Z,21.50
2023-05-10T13:22:28.715Z,21.70
2023-05-10T13:27:41.559Z,21.40
2023-05-10T13:32:43.452Z,21.90
2023-05-10T13:37:45.209Z,21.80
2023-05-10T13:42:47.025Z,21.50
2023-05-10T13:47:48.801Z,21.20
2023-05-10T13:52:50.824Z,20.60
2023-05-10T13:57:52.847Z,20.80
2023-05-10T14:02:55.071Z,19.60
2023-05-10T14:07:57.010Z,19.10
2023-05-10T14:12:58.759Z,18.50
2023-05-10T14:18:00.501Z,18.10
2023-05-10T14:23:02.329Z,17.70
2023-05-10T14:28:04.347Z,17.40
2023-05-10T14:33:06.300Z,17.40
2023-05-10T14:38:08.077Z,17.20
2023-05-10T14:43:10.120Z,17.30
2023-05-10T14:48:16.356Z,17.40
2023-05-10T14:53:18.732Z,17.60
2023-05-10T14:58:20.620Z,17.60
2023-05-10T15:03:22.524Z,17.50
2023-05-10T15:08:25.652Z,17.50
2023-05-10T15:13:27.355Z,17.60
2023-05-10T15:18:29.103Z,17.60
2023-05-10T15:23:31.286Z,17.60
2023-05-10T15:28:34.399Z,17.60
2023-05-10T15:33:38.142Z,17.60
2023-05-10T15:38:39.919Z,17.30
2023-05-10T15:43:41.645Z,17.20
2023-05-10T15:48:43.481Z,17.40
2023-05-10T15:54:00.402Z,17.40
2023-05-10T15:59:08.699Z,17.30
2023-05-10T16:04:10.748Z,17.30
2023-05-10T16:09:12.677Z,17.40
2023-05-10T16:14:14.766Z,17.30
2023-05-10T16:19:16.613Z,17.50
2023-05-10T16:24:18.526Z,17.40
2023-05-10T16:29:20.237Z,17.40
2023-05-10T16:34:24.244Z,17.40
2023-05-10T16:39:25.934Z,17.40
2023-05-10T16:44:27.714Z,17.30
2023-05-10T16:49:29.398Z,17.30
2023-05-10T16:54:31.146Z,17.40
2023-05-10T16:59:32.850Z,17.40
2023-05-10T17:04:35.314Z,17.30
2023-05-10T17:09:37.043Z,17.30
2023-05-10T17:14:38.851Z,17.40
2023-05-10T17:19:40.616Z,17.20
2023-05-10T17:24:42.305Z,17.20
2023-05-10T17:29:44.080Z,17.10
2023-05-10T17:34:45.914Z,17.10
2023-05-10T17:39:47.632Z,17.10
2023-05-10T17:44:49.363Z,17.10
2023-05-10T17:49:51.101Z,17.00
2023-05-10T17:54:53.313Z,16.80
2023-05-10T17:59:55.066Z,16.80
2023-05-10T18:04:59.667Z,16.90
2023-05-10T18:10:01.806Z,16.80
2023-05-10T18:15:04.042Z,16.70
2023-05-10T18:20:07.351Z,16.60
2023-05-10T18:25:09.526Z,16.40
2023-05-10T18:30:12.548Z,16.30
2023-05-10T18:35:14.497Z,16.30
2023-05-10T18:40:17.927Z,16.00
2023-05-10T18:45:19.932Z,15.80
2023-05-10T18:50:21.967Z,15.90
2023-05-10T18:55:26.838Z,15.80
2023-05-10T19:00:28.744Z,15.60
2023-05-10T19:05:31.617Z,15.60
2023-05-10T19:10:33.340Z,15.50
2023-05-10T19:15:35.126Z,15.50
2023-05-10T19:20:38.090Z,15.50
2023-05-10T19:25:42.279Z,15.40
2023-05-10T19:30:44.031Z,15.20
2023-05-10T19:35:45.834Z,15.20
2023-05-10T19:40:48.500Z,15.20
2023-05-10T19:45:50.260Z,14.80
2023-05-10T19:50:53.247Z,15.20
2023-05-10T19:55:55.806Z,15.50
2023-05-10T20:00:57.552Z,15.30
2023-05-10T20:05:59.349Z,15.20
2023-05-10T20:11:03.546Z,15.00
2023-05-10T20:16:06.182Z,15.00
2023-05-10T20:21:08.026Z,15.00
2023-05-10T20:26:09.971Z,15.10
2023-05-10T20:31:11.882Z,14.70
2023-05-10T20:36:13.734Z,14.80
2023-05-10T20:41:15.478Z,14.90
2023-05-10T20:46:17.324Z,15.00
2023-05-10T20:51:19.184Z,15.00
2023-05-10T20:56:21.371Z,15.00
2023-05-10T21:01:23.162Z,15.40
2023-05-10T21:06:25.074Z,15.40
2023-05-10T21:11:26.863Z,15.30
2023-05-10T21:16:28.630Z,15.30
2023-05-10T21:21:30.373Z,15.20
2023-05-10T21:26:32.497Z,15.00
2023-05-10T21:31:34.444Z,14.80
2023-05-10T21:36:36.206Z,14.50
2023-05-10T21:41:37.964Z,14.50
2023-05-10T21:46:39.691Z,14.40
2023-05-10T21:51:41.398Z,14.50
2023-05-10T21:56:43.104Z,14.40
2023-05-10T22:01:44.955Z,14.50
2023-05-10T22:06:46.909Z,14.40
2023-05-10T22:11:48.695Z,14.40
2023-05-10T22:16:50.537Z,14.10
2023-05-10T22:21:53.079Z,14.20
2023-05-10T22:26:56.053Z,14.20
2023-05-10T22:31:58.271Z,14.10
2023-05-10T22:37:00.001Z,13.90
2023-05-10T22:42:01.944Z,13.90
2023-05-10T22:47:04.001Z,13.80
2023-05-10T22:52:05.854Z,13.80
2023-05-10T22:57:07.702Z,14.00
2023-05-10T23:02:09.972Z,14.00
2023-05-10T23:07:12.096Z,14.10
2023-05-10T23:12:13.791Z,14.30
2023-05-10T23:17:15.520Z,14.10
2023-05-10T23:22:17.459Z,14.20
2023-05-10T23:27:19.212Z,14.10
2023-05-10T23:32:21.062Z,14.00
2023-05-10T23:37:22.921Z,13.90
2023-05-10T23:42:24.622Z,13.70
2023-05-10T23:47:26.862Z,13.70
2023-05-10T23:52:28.568Z,13.90
2023-05-10T23:57:30.338Z,13.90
